Pinehurst, Texas
Current Conditions -  °F | °C
As of 2:53 PM on Thursday 23 Oct 2014 (Local Time) from KDWH Reporting Station
Clear Clear  
Wind Chill: 78°   Ceiling: Unl
Heat Index: 79°   Visibility: 10mi
Dew Point: 53°   Wind: 7mph
Humidity: 42%   Direction: 50°NE
Pressure: 30.08"   Gusts: NA
Location:  30.19°N, 95.71°W
Report Text: KDWH 231953Z 05006KT 10SM CLR 26/12 A3008 RMK AO2 SLP183 T02560117
Loading
Personal Weather Stations






























Interactive Weather Map New forecast layout! Learn more

10-Day Weather Forecast

Advertisements
Track Severe Weather on mobile